Time;durP1;ratioP1;P1;durP2;ratioP2;P2;SDS_P1;SDS_P2;PMS_P1;PMS_P2;Temp;Humidity;BMP_temperature;BMP_pressure;BME280_temperature;BME280_humidity;BME280_pressure;Samples;Min_cycle;Max_cycle;Signal;HPM_P1;HPM_P2
2022/11/13 00:01:33;;;;;;;33.83;16.47;;;13.50;99.90;;;;;;5029765;28;20169;-59
2022/11/13 00:03:59;;;;;;;33.27;16.43;;;13.50;99.90;;;;;;5031220;28;20570;-59
2022/11/13 00:06:24;;;;;;;27.53;16.00;;;13.40;99.90;;;;;;5031572;28;20205;-59
2022/11/13 00:08:53;;;;;;;31.67;15.82;;;13.40;99.90;;;;;;5031286;28;20649;-59
2022/11/13 00:11:20;;;;;;;30.70;16.53;;;13.40;99.90;;;;;;5029653;28;20209;-59
2022/11/13 00:13:47;;;;;;;42.38;17.50;;;13.40;99.90;;;;;;5030907;28;20186;-59
2022/11/13 00:16:18;;;;;;;38.03;17.20;;;13.40;99.90;;;;;;5031189;28;20174;-59
2022/11/13 00:18:45;;;;;;;35.03;17.70;;;13.40;99.90;;;;;;5031083;28;20178;-59
2022/11/13 00:21:15;;;;;;;29.83;16.33;;;13.40;99.90;;;;;;5031244;28;20177;-59
2022/11/13 00:23:41;;;;;;;31.10;16.93;;;13.40;99.90;;;;;;5031034;28;20177;-58
2022/11/13 00:26:13;;;;;;;41.23;17.50;;;13.40;99.90;;;;;;5030767;28;20174;-58
2022/11/13 00:28:38;;;;;;;28.93;16.50;;;13.40;99.90;;;;;;5030729;28;20216;-58
2022/11/13 00:31:05;;;;;;;36.63;17.60;;;13.40;99.90;;;;;;5030704;28;20210;-59
2022/11/13 00:33:31;;;;;;;36.93;17.87;;;13.40;99.90;;;;;;5031104;28;20177;-58
2022/11/13 00:36:02;;;;;;;35.90;17.40;;;13.30;99.90;;;;;;5030977;28;20178;-58
2022/11/13 00:38:28;;;;;;;31.80;17.10;;;13.40;99.90;;;;;;5030154;28;20170;-57
2022/11/13 00:40:53;;;;;;;39.63;16.07;;;13.40;99.90;;;;;;5028485;28;20672;-57
2022/11/13 00:43:19;;;;;;;41.50;17.97;;;13.40;99.90;;;;;;5030447;28;20249;-57
2022/11/13 00:45:45;;;;;;;31.77;17.03;;;13.40;99.90;;;;;;5030136;28;20634;-58
2022/11/13 00:48:10;;;;;;;37.43;17.37;;;13.40;99.90;;;;;;5028923;28;20181;-58
2022/11/13 00:50:36;;;;;;;30.40;16.90;;;13.40;99.90;;;;;;5031730;28;20201;-58
2022/11/13 00:53:02;;;;;;;35.87;16.53;;;13.40;99.90;;;;;;5034836;28;20170;-58
2022/11/13 00:55:27;;;;;;;33.30;17.40;;;13.40;99.90;;;;;;5034770;28;20646;-58
2022/11/13 00:57:53;;;;;;;29.83;16.30;;;13.30;99.90;;;;;;5009985;28;20412;-58
2022/11/13 01:00:19;;;;;;;31.13;17.17;;;13.30;99.90;;;;;;5034516;28;20251;-58
2022/11/13 01:02:44;;;;;;;27.70;16.77;;;13.30;99.90;;;;;;5016158;28;20216;-59
2022/11/13 01:05:10;;;;;;;32.80;16.30;;;13.20;99.90;;;;;;5014731;28;20507;-58
2022/11/13 01:07:36;;;;;;;29.40;16.77;;;13.20;99.90;;;;;;5014946;28;20198;-58
2022/11/13 01:10:06;;;;;;;33.33;17.87;;;13.20;99.90;;;;;;5030512;28;20391;-58
2022/11/13 01:12:32;;;;;;;35.13;17.03;;;13.20;99.90;;;;;;5034535;28;20252;-58
2022/11/13 01:14:59;;;;;;;36.50;16.60;;;13.20;99.90;;;;;;5033779;28;20708;-58
2022/11/13 01:17:25;;;;;;;42.17;17.00;;;13.20;99.90;;;;;;5034644;28;20205;-58
2022/11/13 01:19:51;;;;;;;33.77;17.57;;;13.20;99.90;;;;;;5033048;28;20183;-58
2022/11/13 01:22:16;;;;;;;33.83;17.80;;;13.20;99.90;;;;;;5034452;28;20645;-58
2022/11/13 01:24:42;;;;;;;37.20;17.47;;;13.20;99.90;;;;;;5033860;28;20688;-58
2022/11/13 01:27:08;;;;;;;34.43;17.50;;;13.20;99.90;;;;;;5033989;28;20248;-55
2022/11/13 01:29:33;;;;;;;34.60;17.60;;;13.20;99.90;;;;;;5034196;28;20178;-55
2022/11/13 01:31:59;;;;;;;33.17;17.83;;;13.10;99.90;;;;;;5033984;28;20209;-56
2022/11/13 01:34:25;;;;;;;32.03;17.63;;;13.10;99.90;;;;;;5033895;28;20178;-56
2022/11/13 01:36:50;;;;;;;49.73;18.53;;;13.10;99.90;;;;;;5033691;28;20177;-56
2022/11/13 01:39:16;;;;;;;43.27;18.93;;;13.10;99.90;;;;;;5033902;28;20178;-56
2022/11/13 01:41:42;;;;;;;35.73;18.80;;;13.10;99.90;;;;;;5033810;28;20178;-55
2022/11/13 01:44:13;;;;;;;33.53;19.77;;;13.10;99.90;;;;;;5033685;28;20213;-55
2022/11/13 01:46:49;;;;;;;40.90;18.97;;;13.10;99.90;;;;;;5033497;28;20592;-55
2022/11/13 01:49:19;;;;;;;38.27;19.50;;;13.00;99.90;;;;;;5033261;28;20644;-56
2022/11/13 01:51:49;;;;;;;39.03;20.07;;;13.00;99.90;;;;;;5027157;28;20210;-55
2022/11/13 01:54:19;;;;;;;40.07;19.60;;;13.00;99.90;;;;;;5033536;28;20166;-55
2022/11/13 01:56:45;;;;;;;39.27;20.67;;;13.00;99.90;;;;;;5033422;28;20181;-55
2022/11/13 01:59:16;;;;;;;37.23;20.87;;;13.00;99.90;;;;;;5033544;28;20225;-55
2022/11/13 02:01:42;;;;;;;41.07;21.60;;;13.00;99.90;;;;;;5033088;28;20173;-55
2022/11/13 02:04:07;;;;;;;43.27;22.60;;;13.00;99.90;;;;;;5033609;28;20171;-55
2022/11/13 02:06:44;;;;;;;47.07;23.27;;;13.00;99.90;;;;;;5033171;28;20664;-55
2022/11/13 02:09:11;;;;;;;51.43;23.50;;;13.00;99.90;;;;;;5033226;28;20162;-55
2022/11/13 02:11:38;;;;;;;50.27;23.57;;;13.00;99.90;;;;;;5032797;28;20288;-55
2022/11/13 02:14:04;;;;;;;45.57;23.77;;;13.10;99.90;;;;;;5032834;28;20787;-55
2022/11/13 02:16:32;;;;;;;45.50;23.17;;;13.10;99.90;;;;;;5033203;28;20197;-55
2022/11/13 02:18:58;;;;;;;37.70;23.20;;;13.10;99.90;;;;;;5033033;28;20178;-55
2022/11/13 02:21:47;;;;;;;49.17;24.70;;;13.10;99.90;;;;;;5033237;28;20174;-55
2022/11/13 02:24:32;;;;;;;52.67;23.93;;;13.10;99.90;;;;;;5033064;28;20166;-55
2022/11/13 02:27:01;;;;;;;45.70;23.70;;;13.10;99.90;;;;;;5033182;28;20182;-57
2022/11/13 02:29:27;;;;;;;41.83;24.70;;;13.10;99.90;;;;;;5033214;28;20193;-55
2022/11/13 02:31:53;;;;;;;45.37;24.60;;;13.10;99.90;;;;;;5032927;28;20680;-55
2022/11/13 02:34:19;;;;;;;42.63;24.63;;;13.00;99.90;;;;;;5033075;28;20182;-55
2022/11/13 02:36:44;;;;;;;46.37;24.30;;;13.00;99.90;;;;;;5032611;28;20193;-55
2022/11/13 02:39:12;;;;;;;46.67;24.80;;;13.00;99.90;;;;;;5032644;28;20181;-56
2022/11/13 02:41:37;;;;;;;46.57;24.17;;;13.10;99.90;;;;;;5032968;28;20197;-55
2022/11/13 02:44:07;;;;;;;50.03;25.60;;;13.10;99.90;;;;;;5032775;28;20707;-55
2022/11/13 02:46:33;;;;;;;52.43;25.67;;;;;;;;;;5030695;28;20189;-55
2022/11/13 02:48:59;;;;;;;48.00;24.37;;;13.10;99.90;;;;;;5027513;28;20194;-56
2022/11/13 02:51:24;;;;;;;48.47;24.70;;;13.80;99.90;;;;;;5032543;28;20715;-55
2022/11/13 02:53:50;;;;;;;43.63;24.53;;;13.10;99.90;;;;;;5032611;28;20228;-56
2022/11/13 02:56:16;;;;;;;46.80;25.47;;;13.10;99.90;;;;;;5032484;28;20185;-56
2022/11/13 02:58:42;;;;;;;58.60;25.80;;;13.10;99.90;;;;;;5032216;28;20170;-56
2022/11/13 03:01:07;;;;;;;53.20;25.53;;;13.10;99.90;;;;;;5032490;28;20180;-56
2022/11/13 03:03:33;;;;;;;43.73;24.43;;;13.00;99.90;;;;;;5032080;28;20162;-56
2022/11/13 03:05:59;;;;;;;43.63;24.17;;;13.10;99.90;;;;;;5030859;28;20712;-56
2022/11/13 03:08:24;;;;;;;41.40;23.30;;;13.10;99.90;;;;;;5032030;28;20181;-56
2022/11/13 03:10:51;;;;;;;47.33;24.20;;;13.20;99.90;;;;;;5031878;28;20254;-57
2022/11/13 03:13:17;;;;;;;41.30;23.53;;;13.10;99.90;;;;;;5031360;28;20324;-56
2022/11/13 03:15:43;;;;;;;44.93;23.77;;;13.10;99.90;;;;;;5031447;28;20708;-56
2022/11/13 03:18:10;;;;;;;45.60;23.47;;;13.10;99.90;;;;;;5031896;28;20178;-56
2022/11/13 03:20:39;;;;;;;39.00;22.83;;;13.10;99.90;;;;;;5031235;28;20181;-56
2022/11/13 03:23:05;;;;;;;44.73;23.53;;;13.10;99.90;;;;;;5030944;28;20181;-56
2022/11/13 03:25:32;;;;;;;43.80;23.40;;;12.80;99.90;;;;;;5030409;28;20170;-56
2022/11/13 03:27:57;;;;;;;43.83;23.30;;;13.10;99.90;;;;;;5031286;28;20209;-56
2022/11/13 03:30:23;;;;;;;44.27;23.20;;;12.20;99.90;;;;;;5031520;28;20241;-56
2022/11/13 03:32:55;;;;;;;41.17;22.13;;;13.10;99.90;;;;;;5031553;28;20228;-56
2022/11/13 03:35:22;;;;;;;40.20;23.90;;;13.20;99.90;;;;;;5031611;28;20197;-56
2022/11/13 03:37:48;;;;;;;42.70;22.70;;;13.20;99.90;;;;;;5031589;28;20184;-56
2022/11/13 03:40:13;;;;;;;41.40;23.67;;;13.30;99.90;;;;;;5031677;28;20641;-56
2022/11/13 03:42:39;;;;;;;43.70;22.03;;;13.30;99.90;;;;;;5027701;28;20257;-56
2022/11/13 03:45:05;;;;;;;46.07;22.50;;;13.30;99.90;;;;;;5028373;28;20680;-56
2022/11/13 03:47:31;;;;;;;48.50;21.37;;;13.30;99.90;;;;;;5031522;28;20212;-55
2022/11/13 03:49:56;;;;;;;36.20;21.47;;;13.30;99.90;;;;;;5031519;28;20232;-56
2022/11/13 03:52:22;;;;;;;38.43;21.53;;;;;;;;;;5031598;28;20233;-56
2022/11/13 03:54:48;;;;;;;42.67;21.70;;;13.30;99.90;;;;;;5031479;28;20166;-55
2022/11/13 03:57:14;;;;;;;34.23;21.20;;;13.30;99.90;;;;;;5031547;28;20656;-56
2022/11/13 03:59:39;;;;;;;35.07;21.67;;;13.20;99.90;;;;;;5031253;28;20685;-56
2022/11/13 04:02:05;;;;;;;39.67;20.63;;;13.20;99.90;;;;;;5031399;28;20166;-56
2022/11/13 04:04:31;;;;;;;41.83;21.93;;;13.20;99.90;;;;;;5031203;28;20169;-56
2022/11/13 04:06:56;;;;;;;38.23;21.07;;;13.20;99.90;;;;;;5031327;28;20177;-56
2022/11/13 04:09:22;;;;;;;42.70;20.90;;;13.10;99.90;;;;;;5031067;28;20169;-56
2022/11/13 04:11:47;;;;;;;38.03;22.03;;;13.10;99.90;;;;;;5031011;28;20304;-56
2022/11/13 04:14:13;;;;;;;40.00;22.47;;;13.10;99.90;;;;;;5031051;28;20256;-56
2022/11/13 04:16:39;;;;;;;44.17;22.23;;;13.10;99.90;;;;;;5030724;28;20180;-56
2022/11/13 04:19:04;;;;;;;43.47;22.77;;;13.10;99.90;;;;;;5031212;28;20697;-56
2022/11/13 04:21:30;;;;;;;37.73;22.33;;;13.10;99.90;;;;;;5030646;28;20173;-56
2022/11/13 04:23:56;;;;;;;43.73;22.43;;;13.10;99.90;;;;;;5030649;28;20178;-56
2022/11/13 04:26:22;;;;;;;37.83;21.97;;;13.10;99.90;;;;;;5030671;28;20178;-56
2022/11/13 04:28:48;;;;;;;44.23;22.77;;;14.00;99.90;;;;;;5030543;28;20261;-56
2022/11/13 04:31:14;;;;;;;42.10;22.90;;;13.00;99.90;;;;;;5030297;28;20731;-56
2022/11/13 04:33:39;;;;;;;45.70;23.10;;;13.00;99.90;;;;;;5031045;28;20196;-56
2022/11/13 04:36:05;;;;;;;44.37;22.43;;;13.00;99.90;;;;;;5030296;28;20553;-56
2022/11/13 04:38:31;;;;;;;42.53;22.37;;;13.00;99.90;;;;;;5023367;28;20204;-56
2022/11/13 04:43:41;;;;;;;44.13;23.53;;;13.00;99.90;;;;;;5030318;28;20177;-56
2022/11/13 04:46:07;;;;;;;45.47;23.33;;;13.00;99.90;;;;;;5014792;28;20178;-56
2022/11/13 04:48:33;;;;;;;46.00;23.53;;;12.90;99.90;;;;;;5024743;28;20264;-56
2022/11/13 04:50:58;;;;;;;48.33;25.27;;;13.00;99.90;;;;;;5030041;28;20300;-56
2022/11/13 04:53:24;;;;;;;54.83;25.03;;;13.00;99.90;;;;;;5030465;28;20645;-56
2022/11/13 04:55:52;;;;;;;47.53;24.50;;;12.90;99.90;;;;;;5030344;28;20189;-56
2022/11/13 04:58:17;;;;;;;49.03;24.20;;;12.90;99.90;;;;;;5030336;28;20186;-56
2022/11/13 05:00:43;;;;;;;44.87;24.20;;;12.90;99.90;;;;;;5030086;28;20217;-56
2022/11/13 05:03:09;;;;;;;51.07;25.47;;;13.00;99.90;;;;;;5030709;28;20178;-56
2022/11/13 05:05:34;;;;;;;42.40;23.97;;;13.00;99.90;;;;;;5030268;28;20182;-55
2022/11/13 05:08:00;;;;;;;46.73;24.43;;;12.80;99.90;;;;;;5030189;28;20201;-55
2022/11/13 05:10:25;;;;;;;44.77;23.63;;;12.90;99.90;;;;;;5030038;28;20208;-55
2022/11/13 05:12:54;;;;;;;44.67;24.43;;;12.90;99.90;;;;;;5030323;28;20178;-55
2022/11/13 05:15:20;;;;;;;47.83;24.27;;;12.90;99.90;;;;;;5029503;28;20170;-55
2022/11/13 05:17:48;;;;;;;45.37;25.13;;;12.90;99.90;;;;;;5010646;28;20183;-55
2022/11/13 05:20:14;;;;;;;52.07;25.10;;;12.90;99.90;;;;;;5010901;28;20179;-56
2022/11/13 05:22:39;;;;;;;42.87;24.37;;;12.90;99.90;;;;;;5010618;28;20182;-58
2022/11/13 05:25:05;;;;;;;52.07;24.53;;;12.80;99.90;;;;;;5017551;28;20185;-56
2022/11/13 05:27:31;;;;;;;46.33;25.20;;;12.80;99.90;;;;;;5030369;28;20193;-56
2022/11/13 05:29:57;;;;;;;53.17;26.50;;;12.80;99.90;;;;;;5030254;28;20166;-57
2022/11/13 05:32:22;;;;;;;49.07;23.60;;;12.80;99.90;;;;;;5029270;28;20189;-56
2022/11/13 05:34:48;;;;;;;49.67;24.60;;;12.80;99.90;;;;;;5024522;28;20208;-56
2022/11/13 05:37:14;;;;;;;44.80;24.30;;;12.80;99.90;;;;;;5032409;28;20180;-56
2022/11/13 05:39:39;;;;;;;49.30;24.90;;;12.70;99.90;;;;;;5033363;28;20170;-56
2022/11/13 05:42:05;;;;;;;43.60;24.20;;;12.70;99.90;;;;;;5033561;28;20300;-60
2022/11/13 05:44:31;;;;;;;45.10;24.83;;;12.70;99.90;;;;;;5033878;28;20220;-56
2022/11/13 05:46:56;;;;;;;46.67;25.27;;;12.80;99.90;;;;;;5033914;28;20166;-56
2022/11/13 05:49:22;;;;;;;44.47;23.93;;;12.70;99.90;;;;;;5033928;28;20253;-56
2022/11/13 05:51:48;;;;;;;52.47;24.90;;;12.70;99.90;;;;;;5033736;28;20688;-56
2022/11/13 05:54:13;;;;;;;46.03;24.70;;;12.70;99.90;;;;;;5033732;28;20228;-56
2022/11/13 05:56:39;;;;;;;47.20;25.33;;;12.60;99.90;;;;;;5033758;28;20189;-56
2022/11/13 05:59:05;;;;;;;46.37;24.20;;;12.60;99.90;;;;;;5033740;28;20229;-56
2022/11/13 06:01:36;;;;;;;47.20;24.30;;;12.60;99.90;;;;;;5033539;28;20170;-56
2022/11/13 06:04:03;;;;;;;48.63;24.83;;;12.50;99.90;;;;;;5033244;28;20188;-56
2022/11/13 06:06:30;;;;;;;43.50;23.73;;;12.50;99.90;;;;;;5033106;28;20186;-56
2022/11/13 06:08:58;;;;;;;47.30;25.50;;;12.50;99.90;;;;;;5033508;28;20185;-56
2022/11/13 06:11:25;;;;;;;52.57;27.17;;;12.50;99.90;;;;;;5032413;28;20316;-56
2022/11/13 06:13:53;;;;;;;50.43;24.77;;;12.40;99.90;;;;;;5033152;28;20178;-56
2022/11/13 06:16:23;;;;;;;43.53;24.23;;;12.40;99.90;;;;;;5032905;28;20216;-56
2022/11/13 06:18:53;;;;;;;51.90;25.30;;;12.40;99.90;;;;;;5033080;28;20178;-56
2022/11/13 06:21:21;;;;;;;45.70;24.87;;;12.40;99.90;;;;;;5033175;28;20174;-56
2022/11/13 06:23:47;;;;;;;42.67;24.77;;;12.30;99.90;;;;;;5033124;28;20166;-56
2022/11/13 06:26:18;;;;;;;56.83;24.40;;;12.30;99.90;;;;;;5033039;28;20177;-56
2022/11/13 06:28:44;;;;;;;45.90;24.80;;;12.30;99.90;;;;;;5026042;28;20557;-56
2022/11/13 06:31:13;;;;;;;48.40;25.47;;;12.30;99.90;;;;;;5032904;28;20681;-56
2022/11/13 06:33:40;;;;;;;51.80;25.77;;;12.30;99.90;;;;;;5032947;28;20273;-56
2022/11/13 06:36:12;;;;;;;51.43;26.90;;;12.40;99.90;;;;;;5033064;28;20645;-56
2022/11/13 06:38:39;;;;;;;50.27;25.90;;;12.40;99.90;;;;;;5032983;28;20174;-56
2022/11/13 06:41:06;;;;;;;52.70;25.70;;;12.40;99.90;;;;;;5032655;28;20289;-56
2022/11/13 06:43:32;;;;;;;56.13;25.80;;;;;;;;;;5032769;28;20177;-56
2022/11/13 06:46:02;;;;;;;50.20;24.63;;;12.40;99.90;;;;;;5032710;28;20166;-56
2022/11/13 06:48:27;;;;;;;48.83;25.73;;;12.50;99.90;;;;;;5031647;28;20236;-56
2022/11/13 06:50:53;;;;;;;46.57;26.40;;;12.50;99.90;;;;;;5032809;28;20689;-55
2022/11/13 06:53:19;;;;;;;48.03;26.30;;;12.50;99.90;;;;;;5032701;28;20162;-56
2022/11/13 06:55:49;;;;;;;48.90;26.87;;;12.50;99.90;;;;;;5032638;28;20177;-56
2022/11/13 06:58:15;;;;;;;54.80;27.97;;;12.60;99.90;;;;;;5032439;28;20170;-56
2022/11/13 07:00:42;;;;;;;45.50;24.90;;;12.70;99.90;;;;;;5032296;28;20790;-56
2022/11/13 07:03:18;;;;;;;47.33;26.40;;;12.60;99.90;;;;;;5032377;28;20708;-56
2022/11/13 07:05:44;;;;;;;49.87;27.73;;;12.70;99.90;;;;;;5032426;28;20178;-56
2022/11/13 07:08:11;;;;;;;53.83;27.07;;;12.70;99.90;;;;;;5032477;28;20703;-56
2022/11/13 07:10:37;;;;;;;45.93;25.53;;;12.80;99.90;;;;;;5032033;28;20213;-56
2022/11/13 07:13:02;;;;;;;51.93;26.83;;;12.80;99.90;;;;;;5031054;28;20178;-56
2022/11/13 07:15:28;;;;;;;57.13;26.93;;;12.80;99.90;;;;;;5032109;28;20181;-56
2022/11/13 07:17:54;;;;;;;49.00;25.33;;;12.80;99.90;;;;;;5031612;28;20185;-56
2022/11/13 07:20:20;;;;;;;45.63;25.50;;;12.80;99.90;;;;;;5031923;28;20641;-56
2022/11/13 07:22:46;;;;;;;48.97;25.43;;;;;;;;;;5027128;28;20657;-56
2022/11/13 07:25:11;;;;;;;51.47;24.93;;;12.90;99.90;;;;;;5027766;28;20194;-56
2022/11/13 07:27:37;;;;;;;45.03;24.87;;;13.00;99.90;;;;;;5026532;28;20178;-56
2022/11/13 07:30:03;;;;;;;42.90;25.17;;;13.00;99.90;;;;;;5031876;28;20181;-56
2022/11/13 07:32:28;;;;;;;42.90;22.73;;;13.00;99.90;;;;;;5031718;28;20196;-56
2022/11/13 07:34:54;;;;;;;48.97;24.43;;;13.00;99.90;;;;;;5031495;28;20174;-56
2022/11/13 07:37:20;;;;;;;46.50;23.77;;;13.00;99.90;;;;;;5031998;28;20531;-56
2022/11/13 07:39:45;;;;;;;40.40;23.10;;;13.00;99.90;;;;;;5031485;28;20783;-57
2022/11/13 07:42:12;;;;;;;38.37;22.77;;;13.00;99.90;;;;;;5031229;28;20174;-56
2022/11/13 07:44:37;;;;;;;41.87;23.03;;;13.00;99.90;;;;;;5031508;28;20184;-56
2022/11/13 07:47:03;;;;;;;39.07;23.27;;;13.10;99.90;;;;;;5031520;28;20264;-57
2022/11/13 07:49:29;;;;;;;36.97;22.40;;;13.20;99.90;;;;;;5031618;28;20173;-56
2022/11/13 07:51:54;;;;;;;38.67;21.60;;;13.20;99.90;;;;;;5031491;28;20692;-56
2022/11/13 07:54:20;;;;;;;37.60;21.40;;;;;;;;;;5031519;28;20166;-57
2022/11/13 07:56:46;;;;;;;42.43;21.83;;;13.20;99.90;;;;;;5031527;28;20166;-56
2022/11/13 07:59:12;;;;;;;46.70;22.90;;;13.20;99.90;;;;;;5030946;28;20703;-56
2022/11/13 08:01:38;;;;;;;47.50;23.27;;;13.20;99.90;;;;;;5031562;28;20166;-57
2022/11/13 08:04:04;;;;;;;37.53;21.67;;;13.10;99.90;;;;;;5013557;28;20188;-57
2022/11/13 08:06:29;;;;;;;36.90;21.23;;;13.20;99.90;;;;;;5031360;28;20207;-57
2022/11/13 08:08:55;;;;;;;39.90;21.20;;;13.10;99.90;;;;;;5031345;28;20166;-56
2022/11/13 08:11:21;;;;;;;41.33;21.90;;;13.10;99.90;;;;;;5031321;28;20205;-56
2022/11/13 08:13:46;;;;;;;42.10;21.30;;;13.10;99.90;;;;;;5031310;28;20173;-56
2022/11/13 08:16:12;;;;;;;43.17;22.13;;;13.10;99.90;;;;;;5016554;28;20261;-56
2022/11/13 08:18:38;;;;;;;43.53;22.43;;;13.10;99.90;;;;;;5003847;28;20549;-56
2022/11/13 08:21:04;;;;;;;39.07;22.67;;;13.10;99.90;;;;;;5021799;28;20273;-56
2022/11/13 08:23:31;;;;;;;40.87;20.70;;;13.10;99.90;;;;;;5031114;28;20668;-56
2022/11/13 08:25:57;;;;;;;36.43;20.53;;;;;;;;;;5031104;28;20174;-58
2022/11/13 08:28:23;;;;;;;42.03;22.47;;;13.10;99.90;;;;;;5030849;28;20178;-59
2022/11/13 08:30:48;;;;;;;39.20;21.87;;;13.20;99.90;;;;;;5030865;28;20220;-58
2022/11/13 08:33:14;;;;;;;42.07;22.47;;;13.10;99.90;;;;;;5030375;28;20647;-58
2022/11/13 08:35:40;;;;;;;38.93;22.53;;;11.90;99.90;;;;;;5029266;28;20657;-59
2022/11/13 08:38:07;;;;;;;37.70;22.17;;;13.30;99.90;;;;;;5030487;28;20190;-58
2022/11/13 08:40:34;;;;;;;46.97;23.27;;;13.30;99.90;;;;;;5030423;28;20185;-59
2022/11/13 08:43:02;;;;;;;38.13;22.10;;;12.00;99.90;;;;;;5029691;28;20649;-58
2022/11/13 08:45:28;;;;;;;38.90;22.50;;;13.40;99.90;;;;;;5029536;28;20174;-58
2022/11/13 08:48:01;;;;;;;41.13;23.63;;;13.30;99.90;;;;;;5030919;28;20209;-58
2022/11/13 08:50:28;;;;;;;39.83;22.00;;;13.40;99.90;;;;;;5028366;28;20228;-60
2022/11/13 08:52:55;;;;;;;37.13;22.93;;;13.40;99.90;;;;;;5029331;28;20185;-57
2022/11/13 08:55:21;;;;;;;40.27;22.57;;;13.50;99.90;;;;;;5030323;28;20174;-58
2022/11/13 08:57:47;;;;;;;39.97;21.70;;;13.60;99.90;;;;;;5030247;28;20185;-56
2022/11/13 09:00:13;;;;;;;38.60;22.87;;;13.60;99.90;;;;;;5030088;28;20213;-57
2022/11/13 09:02:39;;;;;;;38.53;23.33;;;13.50;99.90;;;;;;5030345;28;20182;-57
2022/11/13 09:05:05;;;;;;;44.30;24.07;;;13.50;99.90;;;;;;5030620;28;20178;-57
2022/11/13 09:07:31;;;;;;;38.53;21.80;;;13.70;99.90;;;;;;5030448;28;20265;-57
2022/11/13 09:09:56;;;;;;;38.73;22.90;;;13.60;99.90;;;;;;5030057;28;20273;-57
2022/11/13 09:12:22;;;;;;;38.87;22.40;;;13.70;99.90;;;;;;5033411;28;20264;-57
2022/11/13 09:14:47;;;;;;;40.70;22.83;;;13.80;99.90;;;;;;5026701;28;20265;-58
2022/11/13 09:17:13;;;;;;;33.93;21.37;;;13.90;99.90;;;;;;5034068;28;20543;-58
2022/11/13 09:19:39;;;;;;;40.47;22.87;;;13.90;99.90;;;;;;5034430;28;20580;-58
2022/11/13 09:22:05;;;;;;;34.17;21.33;;;13.90;99.90;;;;;;5033195;28;20189;-58
2022/11/13 09:24:30;;;;;;;35.70;22.80;;;14.10;99.90;;;;;;5032965;28;20170;-57
2022/11/13 09:26:56;;;;;;;39.30;21.30;;;14.30;99.90;;;;;;5032911;28;20256;-57
2022/11/13 09:29:22;;;;;;;36.97;21.05;;;14.30;99.90;;;;;;5033636;28;20177;-57
2022/11/13 09:31:48;;;;;;;35.35;20.80;;;14.70;99.90;;;;;;5034183;28;20258;-57
2022/11/13 09:34:14;;;;;;;31.63;17.88;;;14.70;99.90;;;;;;5034156;28;20162;-57
2022/11/13 09:36:40;;;;;;;29.80;19.48;;;14.70;99.90;;;;;;5033524;28;20563;-57
2022/11/13 09:39:06;;;;;;;32.17;19.52;;;14.90;99.90;;;;;;5033845;28;20519;-58
2022/11/13 09:41:40;;;;;;;30.83;19.30;;;15.00;99.90;;;;;;5031807;28;20632;-57
2022/11/13 09:44:16;;;;;;;33.47;19.05;;;15.00;99.90;;;;;;5026247;28;20213;-58
2022/11/13 09:46:44;;;;;;;29.95;18.55;;;15.00;99.90;;;;;;5028972;28;20183;-58
2022/11/13 09:49:17;;;;;;;31.98;18.33;;;15.00;99.90;;;;;;5033164;28;20261;-58
2022/11/13 09:51:55;;;;;;;27.58;17.73;;;15.00;99.90;;;;;;5032069;28;20717;-58
2022/11/13 09:54:21;;;;;;;28.70;17.90;;;15.30;99.90;;;;;;5031890;28;20188;-58
2022/11/13 09:57:02;;;;;;;26.25;16.38;;;15.50;99.90;;;;;;5031879;28;20177;-58
2022/11/13 09:59:46;;;;;;;29.02;16.90;;;15.70;99.90;;;;;;5031324;28;20225;-58
2022/11/13 10:02:33;;;;;;;28.17;15.02;;;16.10;99.90;;;;;;5031454;28;20173;-58
2022/11/13 10:05:13;;;;;;;24.02;14.38;;;16.60;99.90;;;;;;5031668;28;20272;-58
2022/11/13 10:08:03;;;;;;;22.13;14.20;;;16.70;99.90;;;;;;5031510;28;20563;-58
2022/11/13 10:10:44;;;;;;;20.90;13.65;;;16.70;99.90;;;;;;5031709;28;20216;-58
2022/11/13 10:13:14;;;;;;;23.73;14.10;;;16.60;99.90;;;;;;5031413;28;20172;-58
2022/11/13 10:15:43;;;;;;;24.45;14.80;;;16.60;99.90;;;;;;5032102;28;20240;-56
2022/11/13 10:18:18;;;;;;;21.38;13.13;;;16.70;99.90;;;;;;5033058;28;20184;-56
2022/11/13 10:20:50;;;;;;;23.95;14.05;;;16.80;99.90;;;;;;5033142;28;20173;-57
2022/11/13 10:23:28;;;;;;;22.55;12.43;;;16.60;99.90;;;;;;5032818;28;20192;-57
2022/11/13 10:25:57;;;;;;;18.90;13.63;;;16.40;99.90;;;;;;5033093;28;20625;-57
2022/11/13 10:28:26;;;;;;;20.23;13.05;;;16.10;99.90;;;;;;5033167;28;20534;-56
2022/11/13 10:30:51;;;;;;;21.63;13.45;;;16.40;99.90;;;;;;5032993;28;20280;-57
2022/11/13 10:33:20;;;;;;;20.27;12.40;;;16.80;99.90;;;;;;5033103;28;20253;-57
2022/11/13 10:36:00;;;;;;;17.92;12.55;;;16.70;99.90;;;;;;5032887;28;20201;-57
2022/11/13 10:38:41;;;;;;;21.90;13.02;;;17.00;99.90;;;;;;5032953;28;20256;-57
2022/11/13 10:41:16;;;;;;;20.60;13.13;;;17.60;99.90;;;;;;5032806;28;20173;-57
2022/11/13 10:43:58;;;;;;;18.20;13.05;;;17.40;99.90;;;;;;5032955;28;20718;-57
2022/11/13 10:46:29;;;;;;;18.85;11.65;;;19.20;99.90;;;;;;5032834;28;20582;-57
2022/11/13 10:48:55;;;;;;;19.90;12.13;;;18.70;99.90;;;;;;5032856;28;20162;-57
2022/11/13 10:51:28;;;;;;;17.85;10.73;;;18.20;99.90;;;;;;5032518;28;20707;-57
2022/11/13 10:53:54;;;;;;;17.67;11.32;;;18.00;99.90;;;;;;5032654;28;20648;-57
2022/11/13 10:56:30;;;;;;;22.23;11.68;;;18.10;99.90;;;;;;5032566;28;20181;-57
2022/11/13 10:59:17;;;;;;;14.68;10.52;;;18.30;99.90;;;;;;5032522;28;20259;-57
2022/11/13 11:01:45;;;;;;;15.80;10.82;;;18.60;99.90;;;;;;5032560;28;20170;-57
2022/11/13 11:04:28;;;;;;;19.00;10.48;;;18.60;99.90;;;;;;5032560;28;20257;-57
2022/11/13 11:06:55;;;;;;;17.88;9.85;;;18.90;99.90;;;;;;5032273;28;20185;-57
2022/11/13 11:09:30;;;;;;;14.80;9.70;;;19.00;99.90;;;;;;5032532;28;20170;-57
2022/11/13 11:12:15;;;;;;;14.93;9.90;;;19.60;99.90;;;;;;5032305;28;20197;-57
2022/11/13 11:14:58;;;;;;;13.85;9.65;;;19.80;99.90;;;;;;5032210;28;20217;-57
2022/11/13 11:17:32;;;;;;;14.77;8.50;;;20.10;99.90;;;;;;5032337;28;20371;-58
2022/11/13 11:20:16;;;;;;;16.83;8.05;;;21.70;99.90;;;;;;5032057;28;20231;-57
2022/11/13 11:22:44;;;;;;;18.08;7.75;;;22.50;99.90;;;;;;5032133;28;20180;-58
2022/11/13 11:25:23;;;;;;;11.02;8.13;;;22.60;99.90;;;;;;5031967;28;20178;-58
2022/11/13 11:28:03;;;;;;;12.88;7.53;;;22.30;99.90;;;;;;5031987;28;20177;-58
2022/11/13 11:30:38;;;;;;;15.95;7.65;;;24.30;99.90;;;;;;5032075;28;20209;-58
2022/11/13 11:33:29;;;;;;;11.63;6.85;;;24.80;99.90;;;;;;5031776;28;20299;-57
2022/11/13 11:36:12;;;;;;;12.95;6.57;;;25.20;99.90;;;;;;5031720;28;20170;-58
2022/11/13 11:39:25;;;;;;;12.60;5.85;;;27.00;99.90;;;;;;5031725;28;20177;-58
2022/11/13 11:41:57;;;;;;;10.38;6.43;;;24.00;99.90;;;;;;5031656;28;20638;-58
2022/11/13 11:44:34;;;;;;;9.50;5.57;;;23.60;99.90;;;;;;5031754;28;20249;-60
2022/11/13 11:46:59;;;;;;;12.60;5.97;;;25.20;99.90;;;;;;5031557;28;20220;-59
2022/11/13 11:49:26;;;;;;;10.40;6.22;;;25.50;99.90;;;;;;5030182;28;20210;-58
2022/11/13 11:52:40;;;;;;;12.23;6.13;;;26.30;99.90;;;;;;5031486;28;20263;-58
2022/11/13 11:55:37;;;;;;;10.55;5.82;;;25.80;99.90;;;;;;4996672;28;20182;-59
2022/11/13 11:58:40;;;;;;;11.20;5.45;;;25.00;99.90;;;;;;5031346;28;20190;-58
2022/11/13 12:01:23;;;;;;;8.43;5.45;;;26.10;99.90;;;;;;5031452;28;20284;-58
2022/11/13 12:04:08;;;;;;;9.68;5.47;;;25.10;99.90;;;;;;5031485;28;20533;-57
2022/11/13 12:06:42;;;;;;;8.32;5.22;;;25.40;99.90;;;;;;5031430;28;20181;-57
2022/11/13 12:09:28;;;;;;;11.57;5.13;;;25.80;99.90;;;;;;5031221;28;20195;-57
2022/11/13 12:12:20;;;;;;;12.43;5.53;;;26.30;99.90;;;;;;5031502;28;20217;-57
2022/11/13 12:15:28;;;;;;;7.80;4.32;;;25.40;99.90;;;;;;5031054;28;20170;-56
2022/11/13 12:18:26;;;;;;;10.45;4.80;;;24.80;99.90;;;;;;5027218;28;20182;-57
2022/11/13 12:21:09;;;;;;;8.95;4.60;;;26.50;99.90;;;;;;5031124;28;20170;-57
2022/11/13 12:23:46;;;;;;;12.25;4.53;;;28.70;99.90;;;;;;5030981;28;20172;-59
2022/11/13 12:26:19;;;;;;;8.25;4.68;;;29.10;99.90;;;;;;5031409;28;20169;-57
2022/11/13 12:29:04;;;;;;;9.35;4.50;;;28.30;99.90;;;;;;5031069;28;20217;-58
2022/11/13 12:31:50;;;;;;;11.38;4.50;;;28.60;99.90;;;;;;5030955;28;20229;-59
2022/11/13 12:34:27;;;;;;;12.63;4.50;;;28.80;99.90;;;;;;5030651;28;20260;-57
2022/11/13 12:36:53;;;;;;;9.63;4.47;;;27.80;99.90;;;;;;5030864;28;20533;-57
2022/11/13 12:39:45;;;;;;;11.55;4.50;;;27.50;99.90;;;;;;5031113;28;20180;-57
2022/11/13 12:42:48;;;;;;;8.32;4.50;;;27.50;99.90;;;;;;5030823;28;20264;-57
2022/11/13 12:45:35;;;;;;;8.40;4.40;;;27.40;99.90;;;;;;5031788;28;20185;-57